Search for airport 
image banner adimage banner adimage banner ad
image banner ad

KXLL - Allentown Queen City Muni

Located in Allentown, United States

ICAO - XLL, IATA -

Data provided by Airmate  

General information

Coordinates: N40°34'13" W75°29'18"
Elevation is 399 feet MSL.
Magnetic variation is -12° East
View others Airports in Pennsylvania

Operational data

Special qualification required
Current time UTC:
Current local time:
Weather
METAR: KXLL 071335Z AUTO 06007KT 10SM CLR 13/01 A2993 RMK AO2
View NOTAMs / SUP AIP / TFR affecting this airport [VIEW]
Communications frequencies: [VIEW]

Runways:

RWY identifierQFULength (ft)Width (ft)SurfaceLDA (ft)
0758°395075ASPH
25238°395075ASPH
15135°316075ASPH
33315°316075ASPH

Airport contact information

Address: Allentown United States

Other aviation service providers

Flight schools

Gateway Aviation, Inc.

Gateway Aviation, Inc.

Satellite view of KXLL